INDIA METEOROLOGICAL DEPARTMENT, R.M.C. NEW DELHI
Dated:18-08-2018
METARS


Agartala   
VEAT 181000Z 00000KT 6000 SCT020 34/27 Q0994 NOSIG=
Ahmedabad  
VAAH 180930Z 23008KT 5000 HZ FEW012 SCT018 BKN080 29/26 Q1000 NOSIG=
Amritsar   
VIAR 181000Z 05006KT 020V090 5000 HZ SCT040 SCT100 33/26 Q0998 NOSIG=
Aurangabad 
VAAU 180900Z 27008KT 5000 HZ FEW018 SCT025 BKN100 27/22 Q1005 NOSIG=
Bangalore  
VOBL 181000Z 28015KT 8000 FEW010 SCT012 28/19 Q1008 NOSIG=
Baroda     
VABO 180930Z 26006KT 5000 HZ SCT015 SCT020 BKN080 29/25 Q1000 NOSIG=
Bhopal     
VABP 181000Z 27008KT 4000 -DZ SCT008 SCT020 BKN100 26/25 Q1002 NOSIG=
Bhubaneswar
VEBS 181000Z 13007KT 4000 -TSRA BKN018 FEW030CB BKN090 29/27 Q0995 NOSIG=
Chennai    
VOMM 181000Z 29005KT 8000 SCT020 BKN100 35/24 Q1000 NOSIG=
Coimbatore 
VOCB 181000Z 21014KT 8000 FEW015 FEW018TCU 29/21 Q1007 NOSIG=
Colombo    
VCBI 180940Z 26007KT 210V330 9999 FEW017 27/23 Q1007 NOSIG=
Delhi      
VIDP 180930Z 17005KT 3500 HZ SCT035 FEW040CB BKN100 35/26 Q0999 NOSIG=
Dehradun   
VIDN 181000Z 32003KT 3500 BR SCT015 BKN060 26/26 Q1001=
Gauhati    
VEGT 180930Z 02011KT 6000 SCT018 FEW025CB BKN100 36/28 Q0995 NOSIG=
Gaya       
VEGY 181000Z 06007KT 4500 HZ SCT018 SCT025 35/26 Q0995 NOSIG=
Gaggal     
VIGG 181000Z 14001KT 6000 SCT030 BKN080 28/24 Q1004=
Goa        
VOGO 180900Z 27010G15KT 5000 BR FEW008 SCT012 BKN080 28/25 Q1005 TEMPO 4000 RA/DZ=
Hyderabad  
VOHS 181000Z 29014KT 6000 SCT010 SCT015 30/23 Q1004 NOSIG=
Imphal     
VEIM 181000Z 19004KT 7000 FEW018 SCT100 32/25 Q0999 NOSIG=
Indore     
VAID 181000Z 28008KT 5000 HZ SCT010 SCT020 BKN100 25/23 Q1002 NOSIG=
Jabalpur   
VAJB 180900Z 29008KT 4000 HZ SCT020 SCT030 30/24 Q1001=
Jaipur     
VIJP 180930Z 09003KT 4000 HZ SCT035 34/25 Q0999 NOSIG=
Khajuraho  
VEKO 180900Z 29006KT 6000 TS SCT025 FEW035CB BKN100 34/27 Q0997 =
Kochi      
VOCI 180930Z NIL=
Kolkata    
VECC 180930Z 11007KT 4500 HZ SCT020 SCT025 35/27 Q0995 NOSIG=
Kozhikode  
VOCL 181000Z 27011KT 6000 FEW008 SCT012 FEW025CB BKN080 27/24 Q1007 TEMPO 5000 -RA =
Lucknow    
VILK 181000Z VRB03KT 5000 HZ SCT020 SCT025 BKN200 36/26 Q0996 NOSIG=
Ludhiana   
VILD 181000Z 16004KT 3000 BR FEW025 SCT030TCU BKN080 29/25 Q0999 =
Madurai    
VOMD 181000Z 29008G18KT 7000 FEW018 BKN100 34/20 Q1004 NOSIG=
Mohanbari  
VEMN 181000Z 02006KT 5000 FEW020 SCT100 33/28 Q0996 NOSIG=
Mumbai     
VABB 181000Z 25014G24KT 1800 RA SCT012 SCT018 FEW025TCU OVC080 27/24 Q1003 TEMPO 1500 SHRA=
Nagpur     
VANP 180930Z20005KT 5000 HZ BKN020 SCT030 BKN100 30/25 Q1000 NOSIG=
Patna      
VEPT 181000Z 14005KT 5000 HZ SCT018 SCT025 36/27 Q0994 NOSIG=
Raipur     
VERP 181000Z 20005KT 6000 FEW020 SCT025 32/26 Q0998 NOSIG=
Safdarjung 
VIDD 180930Z 20005KT 3500 HZ SCT035 FEW040CB BKN100 36/26 Q0997 NOSIG=
Surat     
VASU 181000Z 22008KT 6000 FEW012 SCT018 BKN080 29/25 Q1000=
Ranchi     
VERC 181000Z 15003KT 5000 HZ SCT015 SCT025 32/25 Q1000 NOSIG=
Trichy     
VOTR 180930Z 28016G28KT 6000 SCT016 BKN100 35/19 Q1002 NOSIG=
Trivandrum 
VOTV 181000Z 04010G20KT 5000 HZ SCT012 BKN080 28/24 Q1007 NOSIG=
Udaipur    
VAUD 180900Z 15001KT 3000 HZ SCT025 BKN100 30/25 Q1002 NOSIG=
Varanasi   
VEBN 180930Z 09006KT 6000 SCT025 37/24 Q0995 NOSIG=
Vizag      
VOVZ 181000Z 26010KT 6000 SCT014 OVC080 29/25 Q0996 NOSIG =
Male       
VRMM 181000Z 27011KT 9000 -RA SCT017TCU OVC100 27/25 Q1008 RESHRA TEMPO 3000 TSRA=
Gan        
VRMG 180900Z 21012KT 9999 SCT018TCU BKN260 29/24 Q1008 TEMPO 5000 –SHRA FEW018CB=
Kathmandu  
VNKT 180950Z 22009KT 190V240 8000 FEW010 FEW025CB SCT030 BKN100 28/22 Q1006 NOSIG CB TO SE S AND NW=
Dhaka      
VGHS 180930Z 07007KT 4000 HZ SCT012 BKN100 35/24 Q0995 NOSIG=
Colombo    
VCBI 180940Z 26007KT 210V330 9999 FEW017 27/23 Q1007 NOSIG=
Karachi    
OPKC 181000Z 24012KT 5000 FU SCT020 BKN100 32/23 Q0999 NOSIG=
Lahore     
OPLA 180959Z 02004KT 4000 FU SCT040 BKN100 33/26 Q0998 RMK A29.47 RMK QFE972 TEMPO 32015G35KT 2000 TSRA FEW030CB=
Sri Nagar  
VISR 180930Z 24004KT 6000 FEW025 FEW030CB SCT090 29/18 Q1010 NOSIG=
Jammu      
VIJU 180930Z 23006KT 6000 SCT020 FEW025TCU Q0999 NOSIG TCU SW 35 KM=
Gorakhpur  
VEGK 180930Z 26004KT 6000 SCT030 FEW030TCU SCT250 36/27 Q0996 NOSIG=
Bagdogra   
VEBD 180930Z 15005KT 6000 FEW025 FEW025TCU SCT250 37/25 Q996 TEMPO TS=
Gwalior    
VIGR 180900Z 00000KT 5000 HZ SCT020 BKN025 34/28 Q0998=
Pune       
VAPO 180930Z 26014KT 6000 -RA SCT015 SCT025 BKN080 26/22 Q1006 TEMPO 4000 RA=
Chandigarh 
VICG 180930Z VRB02KT 5000 BR SCT020 FEWCB030 BKN090 28/26 Q1000 TEMPO 3000 IN TSRA=